sensor_id;sensor_type;location;lat;lon;timestamp;P1;P2;P0
69349;PMS5003;64554;43.452;4.934;2023-03-01T00:02:26;46.75;39.00;24.00
69349;PMS5003;64554;43.452;4.934;2023-03-01T00:04:52;50.50;41.00;24.75
69349;PMS5003;64554;43.452;4.934;2023-03-01T00:07:19;49.40;40.40;24.40
69349;PMS5003;64554;43.452;4.934;2023-03-01T00:09:45;44.00;38.00;24.00
69349;PMS5003;64554;43.452;4.934;2023-03-01T00:12:12;44.75;39.75;24.00
69349;PMS5003;64554;43.452;4.934;2023-03-01T00:14:38;51.00;41.25;24.00
69349;PMS5003;64554;43.452;4.934;2023-03-01T00:17:05;49.00;41.00;24.40
69349;PMS5003;64554;43.452;4.934;2023-03-01T00:19:32;46.75;38.50;22.00
69349;PMS5003;64554;43.452;4.934;2023-03-01T00:21:58;43.00;39.00;24.00
69349;PMS5003;64554;43.452;4.934;2023-03-01T00:24:25;43.40;36.60;23.40
69349;PMS5003;64554;43.452;4.934;2023-03-01T00:26:54;43.50;38.00;24.00
69349;PMS5003;64554;43.452;4.934;2023-03-01T00:29:23;46.80;39.00;24.00
69349;PMS5003;64554;43.452;4.934;2023-03-01T00:31:49;50.50;41.00;23.50
69349;PMS5003;64554;43.452;4.934;2023-03-01T00:34:18;51.60;41.60;24.00
69349;PMS5003;64554;43.452;4.934;2023-03-01T00:36:45;48.50;41.50;25.50
69349;PMS5003;64554;43.452;4.934;2023-03-01T00:39:13;44.00;38.50;23.25
69349;PMS5003;64554;43.452;4.934;2023-03-01T00:41:41;47.00;39.00;24.50
69349;PMS5003;64554;43.452;4.934;2023-03-01T00:44:07;42.60;36.60;24.00
69349;PMS5003;64554;43.452;4.934;2023-03-01T00:46:34;48.75;39.75;24.00
69349;PMS5003;64554;43.452;4.934;2023-03-01T00:49:01;48.75;41.00;25.00
69349;PMS5003;64554;43.452;4.934;2023-03-01T00:51:28;50.50;41.00;24.75
69349;PMS5003;64554;43.452;4.934;2023-03-01T00:53:56;49.00;40.00;24.25
69349;PMS5003;64554;43.452;4.934;2023-03-01T00:56:23;48.00;39.50;24.00
69349;PMS5003;64554;43.452;4.934;2023-03-01T00:58:49;47.50;39.00;23.00
69349;PMS5003;64554;43.452;4.934;2023-03-01T01:01:18;47.60;39.00;24.00
69349;PMS5003;64554;43.452;4.934;2023-03-01T01:03:52;47.50;39.00;24.00
69349;PMS5003;64554;43.452;4.934;2023-03-01T01:06:29;39.50;36.00;23.50
69349;PMS5003;64554;43.452;4.934;2023-03-01T01:08:57;47.20;39.00;25.20
69349;PMS5003;64554;43.452;4.934;2023-03-01T01:11:24;47.20;39.00;25.00
69349;PMS5003;64554;43.452;4.934;2023-03-01T01:13:52;41.60;36.00;24.00
69349;PMS5003;64554;43.452;4.934;2023-03-01T01:16:20;47.75;40.50;23.50
69349;PMS5003;64554;43.452;4.934;2023-03-01T01:18:47;50.60;41.00;24.20
69349;PMS5003;64554;43.452;4.934;2023-03-01T01:21:14;49.50;41.50;25.00
69349;PMS5003;64554;43.452;4.934;2023-03-01T01:23:42;46.00;38.00;25.00
69349;PMS5003;64554;43.452;4.934;2023-03-01T01:26:16;49.50;43.00;25.00
69349;PMS5003;64554;43.452;4.934;2023-03-01T01:28:42;49.00;39.00;25.00
69349;PMS5003;64554;43.452;4.934;2023-03-01T01:31:09;50.00;43.75;26.00
69349;PMS5003;64554;43.452;4.934;2023-03-01T01:33:36;50.00;42.25;25.00
69349;PMS5003;64554;43.452;4.934;2023-03-01T01:36:07;51.00;43.50;26.25
69349;PMS5003;64554;43.452;4.934;2023-03-01T01:38:34;48.50;40.50;25.25
69349;PMS5003;64554;43.452;4.934;2023-03-01T01:41:01;46.50;38.75;23.25
69349;PMS5003;64554;43.452;4.934;2023-03-01T01:43:28;44.60;37.40;24.00
69349;PMS5003;64554;43.452;4.934;2023-03-01T01:45:59;45.00;38.00;24.00
69349;PMS5003;64554;43.452;4.934;2023-03-01T01:48:29;49.00;40.40;25.00
69349;PMS5003;64554;43.452;4.934;2023-03-01T01:51:07;44.25;36.50;23.50
69349;PMS5003;64554;43.452;4.934;2023-03-01T01:53:35;53.50;42.50;25.25
69349;PMS5003;64554;43.452;4.934;2023-03-01T01:56:03;48.60;42.40;24.40
69349;PMS5003;64554;43.452;4.934;2023-03-01T01:58:29;47.00;38.50;25.75
69349;PMS5003;64554;43.452;4.934;2023-03-01T02:00:56;46.50;38.50;24.00
69349;PMS5003;64554;43.452;4.934;2023-03-01T02:03:27;47.25;39.50;24.00
69349;PMS5003;64554;43.452;4.934;2023-03-01T02:06:04;44.00;39.00;24.00
69349;PMS5003;64554;43.452;4.934;2023-03-01T02:08:33;41.25;36.50;23.25
69349;PMS5003;64554;43.452;4.934;2023-03-01T02:11:01;48.00;41.00;25.00
69349;PMS5003;64554;43.452;4.934;2023-03-01T02:13:30;46.50;39.25;25.00
69349;PMS5003;64554;43.452;4.934;2023-03-01T02:15:57;44.25;36.75;24.00
69349;PMS5003;64554;43.452;4.934;2023-03-01T02:18:24;46.75;40.75;24.00
69349;PMS5003;64554;43.452;4.934;2023-03-01T02:23:18;52.00;44.00;24.25
69349;PMS5003;64554;43.452;4.934;2023-03-01T02:26:01;52.20;43.60;25.00
69349;PMS5003;64554;43.452;4.934;2023-03-01T02:28:34;51.40;40.60;25.80
69349;PMS5003;64554;43.452;4.934;2023-03-01T02:31:02;48.60;40.60;24.00
69349;PMS5003;64554;43.452;4.934;2023-03-01T02:33:48;49.20;42.00;24.40
69349;PMS5003;64554;43.452;4.934;2023-03-01T02:37:01;46.50;39.75;25.00
69349;PMS5003;64554;43.452;4.934;2023-03-01T02:39:05;45.00;38.67;23.33
69349;PMS5003;64554;43.452;4.934;2023-03-01T02:41:34;50.00;40.80;25.60
69349;PMS5003;64554;43.452;4.934;2023-03-01T02:44:02;51.60;43.00;24.00
69349;PMS5003;64554;43.452;4.934;2023-03-01T02:46:29;51.75;40.75;24.00
69349;PMS5003;64554;43.452;4.934;2023-03-01T02:48:56;43.50;37.50;23.50
69349;PMS5003;64554;43.452;4.934;2023-03-01T02:56:28;48.60;39.00;24.00
69349;PMS5003;64554;43.452;4.934;2023-03-01T02:58:56;42.40;38.20;24.60
69349;PMS5003;64554;43.452;4.934;2023-03-01T03:01:27;53.50;43.75;24.75
69349;PMS5003;64554;43.452;4.934;2023-03-01T03:04:04;52.00;42.40;24.60
69349;PMS5003;64554;43.452;4.934;2023-03-01T03:06:30;48.20;40.60;24.60
69349;PMS5003;64554;43.452;4.934;2023-03-01T03:08:57;43.20;38.00;24.00
69349;PMS5003;64554;43.452;4.934;2023-03-01T03:11:23;48.50;41.25;25.00
69349;PMS5003;64554;43.452;4.934;2023-03-01T03:13:50;52.00;42.00;24.00
69349;PMS5003;64554;43.452;4.934;2023-03-01T03:16:18;49.50;42.50;25.50
69349;PMS5003;64554;43.452;4.934;2023-03-01T03:18:45;48.00;41.50;24.00
69349;PMS5003;64554;43.452;4.934;2023-03-01T03:21:12;49.00;43.00;25.00
69349;PMS5003;64554;43.452;4.934;2023-03-01T03:23:39;49.00;42.00;25.40
69349;PMS5003;64554;43.452;4.934;2023-03-01T03:26:06;43.50;37.75;22.50
69349;PMS5003;64554;43.452;4.934;2023-03-01T03:28:33;49.00;41.60;26.00
69349;PMS5003;64554;43.452;4.934;2023-03-01T03:31:00;49.60;42.60;26.40
69349;PMS5003;64554;43.452;4.934;2023-03-01T03:33:30;45.60;40.20;25.60
69349;PMS5003;64554;43.452;4.934;2023-03-01T03:35:56;50.20;43.20;25.00
69349;PMS5003;64554;43.452;4.934;2023-03-01T03:38:23;45.67;39.33;25.00
69349;PMS5003;64554;43.452;4.934;2023-03-01T03:40:55;50.00;39.00;26.00
69349;PMS5003;64554;43.452;4.934;2023-03-01T03:43:28;49.75;41.50;24.75
69349;PMS5003;64554;43.452;4.934;2023-03-01T03:45:55;52.00;44.50;27.00
69349;PMS5003;64554;43.452;4.934;2023-03-01T03:48:23;53.75;45.25;26.00
69349;PMS5003;64554;43.452;4.934;2023-03-01T03:50:51;54.50;44.50;25.00
69349;PMS5003;64554;43.452;4.934;2023-03-01T03:53:19;55.75;47.00;27.50
69349;PMS5003;64554;43.452;4.934;2023-03-01T03:55:45;53.40;45.00;25.00
69349;PMS5003;64554;43.452;4.934;2023-03-01T03:58:16;54.00;45.60;26.40
69349;PMS5003;64554;43.452;4.934;2023-03-01T04:00:44;54.40;44.60;26.00
69349;PMS5003;64554;43.452;4.934;2023-03-01T04:03:11;45.00;39.00;26.00
69349;PMS5003;64554;43.452;4.934;2023-03-01T04:05:39;52.00;43.00;25.00
69349;PMS5003;64554;43.452;4.934;2023-03-01T04:08:05;44.00;38.00;24.00
69349;PMS5003;64554;43.452;4.934;2023-03-01T04:10:44;52.20;44.00;26.00
69349;PMS5003;64554;43.452;4.934;2023-03-01T04:13:13;49.00;42.60;25.00
69349;PMS5003;64554;43.452;4.934;2023-03-01T04:15:40;48.50;39.00;25.00
69349;PMS5003;64554;43.452;4.934;2023-03-01T04:18:06;51.25;43.50;24.50
69349;PMS5003;64554;43.452;4.934;2023-03-01T04:20:34;50.75;42.25;25.00
69349;PMS5003;64554;43.452;4.934;2023-03-01T04:23:04;56.00;46.75;26.00
69349;PMS5003;64554;43.452;4.934;2023-03-01T04:25:38;60.00;48.80;26.00
69349;PMS5003;64554;43.452;4.934;2023-03-01T04:28:05;50.75;42.25;25.00
69349;PMS5003;64554;43.452;4.934;2023-03-01T04:30:31;56.75;45.00;26.00
69349;PMS5003;64554;43.452;4.934;2023-03-01T04:33:02;54.60;45.80;26.00
69349;PMS5003;64554;43.452;4.934;2023-03-01T04:35:30;53.00;42.25;25.00
69349;PMS5003;64554;43.452;4.934;2023-03-01T04:37:57;50.20;42.80;24.00
69349;PMS5003;64554;43.452;4.934;2023-03-01T04:40:23;51.75;44.50;25.00
69349;PMS5003;64554;43.452;4.934;2023-03-01T04:42:50;50.80;42.00;26.00
69349;PMS5003;64554;43.452;4.934;2023-03-01T04:45:16;54.25;45.25;26.25
69349;PMS5003;64554;43.452;4.934;2023-03-01T04:47:43;55.75;45.00;26.00
69349;PMS5003;64554;43.452;4.934;2023-03-01T04:50:14;55.00;45.00;28.00
69349;PMS5003;64554;43.452;4.934;2023-03-01T04:52:41;54.00;44.00;26.60
69349;PMS5003;64554;43.452;4.934;2023-03-01T04:55:08;55.00;45.25;26.00
69349;PMS5003;64554;43.452;4.934;2023-03-01T04:57:35;55.75;46.75;27.75
69349;PMS5003;64554;43.452;4.934;2023-03-01T05:00:02;52.50;44.75;26.25
69349;PMS5003;64554;43.452;4.934;2023-03-01T05:03:03;58.75;46.75;28.25
69349;PMS5003;64554;43.452;4.934;2023-03-01T05:05:31;51.20;42.80;25.60
69349;PMS5003;64554;43.452;4.934;2023-03-01T05:07:59;54.50;44.00;26.00
69349;PMS5003;64554;43.452;4.934;2023-03-01T05:10:27;56.25;45.25;26.75
69349;PMS5003;64554;43.452;4.934;2023-03-01T05:12:55;56.25;45.50;26.00
69349;PMS5003;64554;43.452;4.934;2023-03-01T05:15:24;53.25;45.00;25.50
69349;PMS5003;64554;43.452;4.934;2023-03-01T05:17:54;54.40;46.40;28.80
69349;PMS5003;64554;43.452;4.934;2023-03-01T05:20:21;68.25;54.50;32.75
69349;PMS5003;64554;43.452;4.934;2023-03-01T05:22:51;63.20;52.40;32.40
69349;PMS5003;64554;43.452;4.934;2023-03-01T05:25:18;68.00;53.25;33.00
69349;PMS5003;64554;43.452;4.934;2023-03-01T05:27:44;56.75;48.00;30.00
69349;PMS5003;64554;43.452;4.934;2023-03-01T05:30:11;58.00;46.50;29.50
69349;PMS5003;64554;43.452;4.934;2023-03-01T05:32:48;54.00;45.00;29.00
69349;PMS5003;64554;43.452;4.934;2023-03-01T05:35:16;59.60;49.20;29.00
69349;PMS5003;64554;43.452;4.934;2023-03-01T05:37:43;59.50;49.25;29.25
69349;PMS5003;64554;43.452;4.934;2023-03-01T05:40:11;68.00;53.00;32.00
69349;PMS5003;64554;43.452;4.934;2023-03-01T05:42:45;69.50;55.75;33.00
69349;PMS5003;64554;43.452;4.934;2023-03-01T05:45:12;62.25;52.25;30.75
69349;PMS5003;64554;43.452;4.934;2023-03-01T05:47:40;60.00;49.00;28.20
69349;PMS5003;64554;43.452;4.934;2023-03-01T05:50:22;58.75;48.75;29.50
69349;PMS5003;64554;43.452;4.934;2023-03-01T05:52:50;59.00;48.00;32.00
69349;PMS5003;64554;43.452;4.934;2023-03-01T05:55:17;59.00;48.25;30.00
69349;PMS5003;64554;43.452;4.934;2023-03-01T05:57:44;55.25;46.00;26.50
69349;PMS5003;64554;43.452;4.934;2023-03-01T06:00:11;62.80;50.20;26.40
69349;PMS5003;64554;43.452;4.934;2023-03-01T06:02:39;56.50;46.75;26.50
69349;PMS5003;64554;43.452;4.934;2023-03-01T06:05:06;53.75;43.50;29.50
69349;PMS5003;64554;43.452;4.934;2023-03-01T06:07:34;60.00;49.00;28.25
69349;PMS5003;64554;43.452;4.934;2023-03-01T06:10:01;60.00;49.75;30.00
69349;PMS5003;64554;43.452;4.934;2023-03-01T06:12:34;61.40;49.00;29.00
69349;PMS5003;64554;43.452;4.934;2023-03-01T06:15:02;56.25;47.50;28.50
69349;PMS5003;64554;43.452;4.934;2023-03-01T06:17:30;55.00;45.00;26.00
69349;PMS5003;64554;43.452;4.934;2023-03-01T06:19:57;59.50;48.75;26.00
69349;PMS5003;64554;43.452;4.934;2023-03-01T06:22:24;57.20;47.80;27.80
69349;PMS5003;64554;43.452;4.934;2023-03-01T06:24:50;57.50;47.75;29.00
69349;PMS5003;64554;43.452;4.934;2023-03-01T06:27:17;57.80;46.60;27.80
69349;PMS5003;64554;43.452;4.934;2023-03-01T06:29:43;58.75;48.00;28.00
69349;PMS5003;64554;43.452;4.934;2023-03-01T06:32:10;50.80;43.40;25.40
69349;PMS5003;64554;43.452;4.934;2023-03-01T06:34:37;64.25;52.50;29.50
69349;PMS5003;64554;43.452;4.934;2023-03-01T06:37:03;62.00;51.00;30.50
69349;PMS5003;64554;43.452;4.934;2023-03-01T06:39:31;63.00;49.40;29.40
69349;PMS5003;64554;43.452;4.934;2023-03-01T06:41:58;61.00;50.50;30.00
69349;PMS5003;64554;43.452;4.934;2023-03-01T06:44:25;60.50;48.50;29.00
69349;PMS5003;64554;43.452;4.934;2023-03-01T06:46:51;59.00;49.40;28.60
69349;PMS5003;64554;43.452;4.934;2023-03-01T06:49:18;54.00;45.60;26.00
69349;PMS5003;64554;43.452;4.934;2023-03-01T06:51:44;63.00;50.50;30.00
69349;PMS5003;64554;43.452;4.934;2023-03-01T06:54:11;62.50;51.50;29.00
69349;PMS5003;64554;43.452;4.934;2023-03-01T06:56:37;64.50;51.50;29.75
69349;PMS5003;64554;43.452;4.934;2023-03-01T06:59:04;56.20;47.00;29.20
69349;PMS5003;64554;43.452;4.934;2023-03-01T07:01:30;60.60;49.00;30.20
69349;PMS5003;64554;43.452;4.934;2023-03-01T07:03:57;66.00;51.67;30.00
69349;PMS5003;64554;43.452;4.934;2023-03-01T07:06:23;56.00;45.00;29.00
69349;PMS5003;64554;43.452;4.934;2023-03-01T07:08:50;58.40;46.80;30.00
69349;PMS5003;64554;43.452;4.934;2023-03-01T07:11:16;61.75;50.25;30.00
69349;PMS5003;64554;43.452;4.934;2023-03-01T07:13:43;59.20;49.20;30.00
69349;PMS5003;64554;43.452;4.934;2023-03-01T07:16:09;54.25;45.75;28.50
69349;PMS5003;64554;43.452;4.934;2023-03-01T07:18:36;57.25;47.75;29.00
69349;PMS5003;64554;43.452;4.934;2023-03-01T07:21:09;64.00;49.00;30.00
69349;PMS5003;64554;43.452;4.934;2023-03-01T07:23:37;64.80;52.00;31.20
69349;PMS5003;64554;43.452;4.934;2023-03-01T07:26:03;62.20;49.80;30.00
69349;PMS5003;64554;43.452;4.934;2023-03-01T07:28:30;63.80;50.40;28.60
69349;PMS5003;64554;43.452;4.934;2023-03-01T07:31:00;61.50;51.00;30.00
69349;PMS5003;64554;43.452;4.934;2023-03-01T07:33:27;60.00;48.40;29.00
69349;PMS5003;64554;43.452;4.934;2023-03-01T07:35:57;64.50;52.00;30.00
69349;PMS5003;64554;43.452;4.934;2023-03-01T07:38:24;60.00;49.00;30.00
69349;PMS5003;64554;43.452;4.934;2023-03-01T07:40:50;69.25;56.00;33.00
69349;PMS5003;64554;43.452;4.934;2023-03-01T07:43:17;63.00;50.00;28.60
69349;PMS5003;64554;43.452;4.934;2023-03-01T07:45:43;63.25;50.75;30.00
69349;PMS5003;64554;43.452;4.934;2023-03-01T07:48:10;55.80;46.00;27.00
69349;PMS5003;64554;43.452;4.934;2023-03-01T07:50:36;59.75;47.50;30.00
69349;PMS5003;64554;43.452;4.934;2023-03-01T07:53:03;59.00;47.00;29.00
69349;PMS5003;64554;43.452;4.934;2023-03-01T07:55:30;59.00;47.00;29.00
69349;PMS5003;64554;43.452;4.934;2023-03-01T07:57:56;63.00;49.80;31.00
69349;PMS5003;64554;43.452;4.934;2023-03-01T08:00:22;66.80;52.80;30.00
69349;PMS5003;64554;43.452;4.934;2023-03-01T08:02:49;65.00;51.50;30.75
69349;PMS5003;64554;43.452;4.934;2023-03-01T08:05:15;65.50;51.75;30.50
69349;PMS5003;64554;43.452;4.934;2023-03-01T08:07:42;65.50;52.75;32.00
69349;PMS5003;64554;43.452;4.934;2023-03-01T08:10:09;62.75;50.00;30.00
69349;PMS5003;64554;43.452;4.934;2023-03-01T08:12:36;63.25;51.00;31.00
69349;PMS5003;64554;43.452;4.934;2023-03-01T08:15:02;60.20;50.00;30.60
69349;PMS5003;64554;43.452;4.934;2023-03-01T08:17:29;60.00;49.00;30.00
69349;PMS5003;64554;43.452;4.934;2023-03-01T08:19:55;57.50;47.00;29.50
69349;PMS5003;64554;43.452;4.934;2023-03-01T08:22:22;59.75;49.00;30.50
69349;PMS5003;64554;43.452;4.934;2023-03-01T08:24:48;55.80;47.00;28.20
69349;PMS5003;64554;43.452;4.934;2023-03-01T08:27:15;59.00;48.60;29.40
69349;PMS5003;64554;43.452;4.934;2023-03-01T08:29:42;55.25;45.00;27.00
69349;PMS5003;64554;43.452;4.934;2023-03-01T08:32:08;54.00;45.00;29.00
69349;PMS5003;64554;43.452;4.934;2023-03-01T08:34:35;55.00;45.00;27.80
69349;PMS5003;64554;43.452;4.934;2023-03-01T08:37:01;56.25;46.00;29.00
69349;PMS5003;64554;43.452;4.934;2023-03-01T08:39:28;48.00;41.00;25.00
69349;PMS5003;64554;43.452;4.934;2023-03-01T08:41:55;49.25;41.25;26.00
69349;PMS5003;64554;43.452;4.934;2023-03-01T08:44:21;52.00;44.00;27.00
69349;PMS5003;64554;43.452;4.934;2023-03-01T08:46:48;56.60;46.00;27.80
69349;PMS5003;64554;43.452;4.934;2023-03-01T08:49:17;49.00;41.25;26.00
69349;PMS5003;64554;43.452;4.934;2023-03-01T08:51:44;53.00;45.00;27.33
69349;PMS5003;64554;43.452;4.934;2023-03-01T08:54:12;49.00;42.00;26.50
69349;PMS5003;64554;43.452;4.934;2023-03-01T08:56:39;55.75;46.00;28.25
69349;PMS5003;64554;43.452;4.934;2023-03-01T08:59:05;51.75;43.75;27.75
69349;PMS5003;64554;43.452;4.934;2023-03-01T09:01:32;46.40;39.60;26.60
69349;PMS5003;64554;43.452;4.934;2023-03-01T09:03:58;57.00;46.40;28.00
69349;PMS5003;64554;43.452;4.934;2023-03-01T09:06:25;51.40;43.00;29.00
69349;PMS5003;64554;43.452;4.934;2023-03-01T09:08:51;50.00;43.00;27.00
69349;PMS5003;64554;43.452;4.934;2023-03-01T09:11:19;53.75;44.75;27.00
69349;PMS5003;64554;43.452;4.934;2023-03-01T09:13:47;55.20;46.40;29.00
69349;PMS5003;64554;43.452;4.934;2023-03-01T09:16:14;51.20;42.40;26.40
69349;PMS5003;64554;43.452;4.934;2023-03-01T09:18:41;55.60;46.20;28.40
69349;PMS5003;64554;43.452;4.934;2023-03-01T09:21:10;53.00;44.50;26.50
69349;PMS5003;64554;43.452;4.934;2023-03-01T09:23:38;53.20;44.20;27.60
69349;PMS5003;64554;43.452;4.934;2023-03-01T09:26:06;53.00;44.40;28.00
69349;PMS5003;64554;43.452;4.934;2023-03-01T09:28:33;54.40;45.00;29.00
69349;PMS5003;64554;43.452;4.934;2023-03-01T09:31:00;55.00;46.00;29.00
69349;PMS5003;64554;43.452;4.934;2023-03-01T09:33:27;54.75;44.00;27.50
69349;PMS5003;64554;43.452;4.934;2023-03-01T09:35:57;52.00;43.60;27.00
69349;PMS5003;64554;43.452;4.934;2023-03-01T09:38:24;53.80;44.00;27.40
69349;PMS5003;64554;43.452;4.934;2023-03-01T09:40:52;50.80;42.80;25.20
69349;PMS5003;64554;43.452;4.934;2023-03-01T09:43:35;55.00;44.50;27.50
69349;PMS5003;64554;43.452;4.934;2023-03-01T09:46:08;52.50;42.75;25.50
69349;PMS5003;64554;43.452;4.934;2023-03-01T09:48:41;50.00;41.00;26.00
69349;PMS5003;64554;43.452;4.934;2023-03-01T09:51:09;51.50;43.00;27.00
69349;PMS5003;64554;43.452;4.934;2023-03-01T09:53:38;54.75;45.50;25.75
69349;PMS5003;64554;43.452;4.934;2023-03-01T09:56:22;59.75;48.75;30.00
69349;PMS5003;64554;43.452;4.934;2023-03-01T09:58:52;54.75;45.00;28.75
69349;PMS5003;64554;43.452;4.934;2023-03-01T10:01:29;53.00;45.00;28.80
69349;PMS5003;64554;43.452;4.934;2023-03-01T10:06:51;57.50;47.25;30.00
69349;PMS5003;64554;43.452;4.934;2023-03-01T10:09:20;48.40;40.40;25.40
69349;PMS5003;64554;43.452;4.934;2023-03-01T10:11:52;55.00;44.00;29.00
69349;PMS5003;64554;43.452;4.934;2023-03-01T10:15:05;55.00;45.00;28.00
69349;PMS5003;64554;43.452;4.934;2023-03-01T10:19:38;49.80;40.00;24.20
69349;PMS5003;64554;43.452;4.934;2023-03-01T10:22:11;62.50;48.50;30.50
69349;PMS5003;64554;43.452;4.934;2023-03-01T10:24:39;54.50;45.50;27.25
69349;PMS5003;64554;43.452;4.934;2023-03-01T10:27:25;65.00;51.75;32.50
69349;PMS5003;64554;43.452;4.934;2023-03-01T10:30:02;56.00;46.00;29.00
69349;PMS5003;64554;43.452;4.934;2023-03-01T10:32:32;55.00;45.60;29.00
69349;PMS5003;64554;43.452;4.934;2023-03-01T10:34:58;56.25;47.00;30.00
69349;PMS5003;64554;43.452;4.934;2023-03-01T10:37:25;62.00;49.50;30.00
69349;PMS5003;64554;43.452;4.934;2023-03-01T10:39:54;56.25;45.50;29.75
69349;PMS5003;64554;43.452;4.934;2023-03-01T10:42:31;53.50;43.50;26.25
69349;PMS5003;64554;43.452;4.934;2023-03-01T10:45:15;52.50;43.00;27.00
69349;PMS5003;64554;43.452;4.934;2023-03-01T10:47:42;48.75;41.50;25.75
69349;PMS5003;64554;43.452;4.934;2023-03-01T10:50:18;52.33;44.33;27.00
69349;PMS5003;64554;43.452;4.934;2023-03-01T10:52:55;46.20;39.00;26.00
69349;PMS5003;64554;43.452;4.934;2023-03-01T10:55:40;51.60;42.00;26.40
69349;PMS5003;64554;43.452;4.934;2023-03-01T10:58:08;49.00;40.20;24.00
69349;PMS5003;64554;43.452;4.934;2023-03-01T11:00:44;46.80;40.20;24.60
69349;PMS5003;64554;43.452;4.934;2023-03-01T11:03:13;48.33;40.67;25.00
69349;PMS5003;64554;43.452;4.934;2023-03-01T11:05:53;49.75;42.50;25.50
69349;PMS5003;64554;43.452;4.934;2023-03-01T11:08:30;49.00;41.00;26.00
69349;PMS5003;64554;43.452;4.934;2023-03-01T11:11:09;45.00;39.00;26.00
69349;PMS5003;64554;43.452;4.934;2023-03-01T11:13:47;47.60;40.60;25.00
69349;PMS5003;64554;43.452;4.934;2023-03-01T11:16:16;47.75;40.00;25.00
69349;PMS5003;64554;43.452;4.934;2023-03-01T11:19:22;45.00;38.00;23.00
69349;PMS5003;64554;43.452;4.934;2023-03-01T11:26:56;45.00;39.00;26.00
69349;PMS5003;64554;43.452;4.934;2023-03-01T11:29:40;52.33;44.33;28.00
69349;PMS5003;64554;43.452;4.934;2023-03-01T11:32:14;50.00;42.00;26.60
69349;PMS5003;64554;43.452;4.934;2023-03-01T11:34:58;46.60;39.60;25.00
69349;PMS5003;64554;43.452;4.934;2023-03-01T11:37:30;52.00;44.00;24.80
69349;PMS5003;64554;43.452;4.934;2023-03-01T11:45:02;46.50;38.25;24.50
69349;PMS5003;64554;43.452;4.934;2023-03-01T12:08:25;50.20;42.00;26.00
69349;PMS5003;64554;43.452;4.934;2023-03-01T12:11:03;47.50;40.25;25.00
69349;PMS5003;64554;43.452;4.934;2023-03-01T12:21:59;50.00;40.00;23.00
69349;PMS5003;64554;43.452;4.934;2023-03-01T12:24:51;50.40;40.40;24.60
69349;PMS5003;64554;43.452;4.934;2023-03-01T12:30:57;55.40;45.40;28.00
69349;PMS5003;64554;43.452;4.934;2023-03-01T12:43:28;53.40;44.00;26.00
69349;PMS5003;64554;43.452;4.934;2023-03-01T12:51:56;52.00;43.75;28.00
69349;PMS5003;64554;43.452;4.934;2023-03-01T12:54:26;50.00;41.75;26.00
69349;PMS5003;64554;43.452;4.934;2023-03-01T12:56:54;50.40;43.00;25.60
69349;PMS5003;64554;43.452;4.934;2023-03-01T12:59:24;48.00;41.00;25.00
69349;PMS5003;64554;43.452;4.934;2023-03-01T13:07:16;55.20;45.80;29.00
69349;PMS5003;64554;43.452;4.934;2023-03-01T13:15:01;51.33;42.33;25.33
69349;PMS5003;64554;43.452;4.934;2023-03-01T13:17:31;54.00;43.60;26.00
69349;PMS5003;64554;43.452;4.934;2023-03-01T13:19:58;51.40;41.40;27.00
69349;PMS5003;64554;43.452;4.934;2023-03-01T13:22:26;44.40;38.40;24.00
69349;PMS5003;64554;43.452;4.934;2023-03-01T13:25:00;51.20;42.80;24.00
69349;PMS5003;64554;43.452;4.934;2023-03-01T13:27:27;55.60;43.80;27.20
69349;PMS5003;64554;43.452;4.934;2023-03-01T13:29:59;45.50;39.00;24.00
69349;PMS5003;64554;43.452;4.934;2023-03-01T13:32:32;47.60;41.00;24.00
69349;PMS5003;64554;43.452;4.934;2023-03-01T13:37:45;47.00;40.25;24.00
69349;PMS5003;64554;43.452;4.934;2023-03-01T13:42:43;63.25;50.25;30.75
69349;PMS5003;64554;43.452;4.934;2023-03-01T13:45:40;52.00;43.00;27.50
69349;PMS5003;64554;43.452;4.934;2023-03-01T13:48:11;52.50;43.75;28.00
69349;PMS5003;64554;43.452;4.934;2023-03-01T13:50:46;53.00;44.20;28.00
69349;PMS5003;64554;43.452;4.934;2023-03-01T13:53:17;51.67;42.67;24.33
69349;PMS5003;64554;43.452;4.934;2023-03-01T13:55:46;51.75;43.25;26.00
69349;PMS5003;64554;43.452;4.934;2023-03-01T14:00:40;58.75;47.25;28.50
69349;PMS5003;64554;43.452;4.934;2023-03-01T14:05:40;52.75;42.75;26.00
69349;PMS5003;64554;43.452;4.934;2023-03-01T14:08:18;51.75;43.25;27.00
69349;PMS5003;64554;43.452;4.934;2023-03-01T14:11:09;50.00;42.50;27.50
69349;PMS5003;64554;43.452;4.934;2023-03-01T14:16:08;49.75;42.00;26.25
69349;PMS5003;64554;43.452;4.934;2023-03-01T14:21:33;61.00;50.40;33.60
69349;PMS5003;64554;43.452;4.934;2023-03-01T14:24:01;72.25;62.50;43.25
69349;PMS5003;64554;43.452;4.934;2023-03-01T14:26:28;56.50;47.00;31.00
69349;PMS5003;64554;43.452;4.934;2023-03-01T14:28:57;49.40;41.40;26.40
69349;PMS5003;64554;43.452;4.934;2023-03-01T14:34:01;54.00;44.20;30.80
69349;PMS5003;64554;43.452;4.934;2023-03-01T14:36:29;52.25;43.25;27.25
69349;PMS5003;64554;43.452;4.934;2023-03-01T14:38:56;55.75;46.00;27.25
69349;PMS5003;64554;43.452;4.934;2023-03-01T14:41:32;54.00;44.00;27.00
69349;PMS5003;64554;43.452;4.934;2023-03-01T14:44:05;43.20;35.60;22.40
69349;PMS5003;64554;43.452;4.934;2023-03-01T14:46:36;49.00;40.75;23.00
69349;PMS5003;64554;43.452;4.934;2023-03-01T14:49:10;44.40;38.00;22.00
69349;PMS5003;64554;43.452;4.934;2023-03-01T14:51:41;52.00;41.50;23.00
69349;PMS5003;64554;43.452;4.934;2023-03-01T14:54:18;50.40;42.60;22.60
69349;PMS5003;64554;43.452;4.934;2023-03-01T14:56:46;48.00;37.25;22.75
69349;PMS5003;64554;43.452;4.934;2023-03-01T14:59:13;48.00;40.00;24.50
69349;PMS5003;64554;43.452;4.934;2023-03-01T15:01:40;45.00;38.50;23.00
69349;PMS5003;64554;43.452;4.934;2023-03-01T15:04:09;41.50;36.00;23.25
69349;PMS5003;64554;43.452;4.934;2023-03-01T15:06:37;47.00;39.50;22.00
69349;PMS5003;64554;43.452;4.934;2023-03-01T15:09:04;48.80;41.20;26.20
69349;PMS5003;64554;43.452;4.934;2023-03-01T15:11:31;46.40;40.00;23.20
69349;PMS5003;64554;43.452;4.934;2023-03-01T15:13:58;46.40;39.40;22.40
69349;PMS5003;64554;43.452;4.934;2023-03-01T15:18:55;56.25;45.50;28.75
69349;PMS5003;64554;43.452;4.934;2023-03-01T15:21:23;46.75;39.50;24.00
69349;PMS5003;64554;43.452;4.934;2023-03-01T15:24:02;48.00;38.60;24.00
69349;PMS5003;64554;43.452;4.934;2023-03-01T15:26:31;55.50;45.00;28.00
69349;PMS5003;64554;43.452;4.934;2023-03-01T15:29:00;63.00;50.40;33.00
69349;PMS5003;64554;43.452;4.934;2023-03-01T15:31:28;52.00;43.80;29.20
69349;PMS5003;64554;43.452;4.934;2023-03-01T15:34:21;52.50;43.50;27.25
69349;PMS5003;64554;43.452;4.934;2023-03-01T15:36:48;55.00;46.00;29.00
69349;PMS5003;64554;43.452;4.934;2023-03-01T15:39:27;52.00;43.50;29.00
69349;PMS5003;64554;43.452;4.934;2023-03-01T15:41:56;54.20;44.80;28.00
69349;PMS5003;64554;43.452;4.934;2023-03-01T15:44:26;69.60;60.60;44.20